sensor_id;sensor_type;location;lat;lon;timestamp;P1;durP1;ratioP1;P2;durP2;ratioP2
78382;SDS011;67668;52.294;4.692;2023-08-30T00:01:31;4.80;;;2.60;;
78382;SDS011;67668;52.294;4.692;2023-08-30T00:03:57;5.15;;;2.58;;
78382;SDS011;67668;52.294;4.692;2023-08-30T00:06:22;4.65;;;2.95;;
78382;SDS011;67668;52.294;4.692;2023-08-30T00:08:48;6.37;;;2.33;;
78382;SDS011;67668;52.294;4.692;2023-08-30T00:11:14;6.53;;;2.53;;
78382;SDS011;67668;52.294;4.692;2023-08-30T00:13:39;4.63;;;2.70;;
78382;SDS011;67668;52.294;4.692;2023-08-30T00:16:05;3.10;;;1.92;;
78382;SDS011;67668;52.294;4.692;2023-08-30T00:18:31;4.45;;;2.15;;
78382;SDS011;67668;52.294;4.692;2023-08-30T00:20:57;4.40;;;2.20;;
78382;SDS011;67668;52.294;4.692;2023-08-30T00:23:22;4.60;;;2.33;;
78382;SDS011;67668;52.294;4.692;2023-08-30T00:25:48;3.30;;;1.98;;
78382;SDS011;67668;52.294;4.692;2023-08-30T00:28:13;4.95;;;2.83;;
78382;SDS011;67668;52.294;4.692;2023-08-30T00:30:39;4.82;;;3.00;;
78382;SDS011;67668;52.294;4.692;2023-08-30T00:33:05;5.88;;;2.58;;
78382;SDS011;67668;52.294;4.692;2023-08-30T00:35:31;4.55;;;2.53;;
78382;SDS011;67668;52.294;4.692;2023-08-30T00:37:56;4.95;;;2.53;;
78382;SDS011;67668;52.294;4.692;2023-08-30T00:40:24;6.63;;;3.22;;
78382;SDS011;67668;52.294;4.692;2023-08-30T00:42:50;5.55;;;2.72;;
78382;SDS011;67668;52.294;4.692;2023-08-30T00:45:16;5.03;;;2.50;;
78382;SDS011;67668;52.294;4.692;2023-08-30T00:47:41;3.90;;;2.75;;
78382;SDS011;67668;52.294;4.692;2023-08-30T00:50:07;7.47;;;3.10;;
78382;SDS011;67668;52.294;4.692;2023-08-30T00:52:35;5.30;;;2.95;;
78382;SDS011;67668;52.294;4.692;2023-08-30T00:55:00;7.28;;;2.90;;
78382;SDS011;67668;52.294;4.692;2023-08-30T00:57:26;5.32;;;3.03;;
78382;SDS011;67668;52.294;4.692;2023-08-30T00:59:51;5.43;;;2.80;;
78382;SDS011;67668;52.294;4.692;2023-08-30T01:02:18;4.90;;;3.08;;
78382;SDS011;67668;52.294;4.692;2023-08-30T01:04:44;4.80;;;3.17;;
78382;SDS011;67668;52.294;4.692;2023-08-30T01:07:10;6.53;;;3.88;;
78382;SDS011;67668;52.294;4.692;2023-08-30T01:09:37;7.03;;;3.33;;
78382;SDS011;67668;52.294;4.692;2023-08-30T01:12:10;9.50;;;4.07;;
78382;SDS011;67668;52.294;4.692;2023-08-30T01:14:45;5.15;;;3.00;;
78382;SDS011;67668;52.294;4.692;2023-08-30T01:17:19;5.93;;;3.33;;
78382;SDS011;67668;52.294;4.692;2023-08-30T01:28:16;5.78;;;3.70;;
78382;SDS011;67668;52.294;4.692;2023-08-30T01:30:46;5.78;;;2.95;;
78382;SDS011;67668;52.294;4.692;2023-08-30T01:33:13;7.97;;;4.05;;
78382;SDS011;67668;52.294;4.692;2023-08-30T01:35:40;5.72;;;3.55;;
78382;SDS011;67668;52.294;4.692;2023-08-30T01:38:07;9.80;;;3.20;;
78382;SDS011;67668;52.294;4.692;2023-08-30T01:40:37;6.70;;;4.00;;
78382;SDS011;67668;52.294;4.692;2023-08-30T01:43:06;7.43;;;3.70;;
78382;SDS011;67668;52.294;4.692;2023-08-30T01:45:34;4.95;;;3.20;;
78382;SDS011;67668;52.294;4.692;2023-08-30T01:48:02;6.47;;;3.00;;
78382;SDS011;67668;52.294;4.692;2023-08-30T01:50:28;7.10;;;3.92;;
78382;SDS011;67668;52.294;4.692;2023-08-30T01:52:55;6.03;;;3.70;;
78382;SDS011;67668;52.294;4.692;2023-08-30T01:55:21;8.23;;;3.58;;
78382;SDS011;67668;52.294;4.692;2023-08-30T01:57:48;8.00;;;3.95;;
78382;SDS011;67668;52.294;4.692;2023-08-30T02:00:13;7.18;;;4.35;;
78382;SDS011;67668;52.294;4.692;2023-08-30T02:02:40;6.63;;;3.85;;
78382;SDS011;67668;52.294;4.692;2023-08-30T02:05:06;7.10;;;4.05;;
78382;SDS011;67668;52.294;4.692;2023-08-30T02:07:40;7.53;;;4.28;;
78382;SDS011;67668;52.294;4.692;2023-08-30T02:10:15;5.95;;;3.85;;
78382;SDS011;67668;52.294;4.692;2023-08-30T02:12:49;6.18;;;4.10;;
78382;SDS011;67668;52.294;4.692;2023-08-30T02:15:20;8.25;;;3.90;;
78382;SDS011;67668;52.294;4.692;2023-08-30T02:17:48;6.70;;;4.07;;
78382;SDS011;67668;52.294;4.692;2023-08-30T02:20:15;8.38;;;4.18;;
78382;SDS011;67668;52.294;4.692;2023-08-30T02:22:41;8.05;;;4.55;;
78382;SDS011;67668;52.294;4.692;2023-08-30T02:25:06;8.90;;;4.70;;
78382;SDS011;67668;52.294;4.692;2023-08-30T02:27:33;9.00;;;4.40;;
78382;SDS011;67668;52.294;4.692;2023-08-30T02:29:59;7.78;;;3.97;;
78382;SDS011;67668;52.294;4.692;2023-08-30T02:32:25;8.25;;;4.53;;
78382;SDS011;67668;52.294;4.692;2023-08-30T02:34:51;9.30;;;4.80;;
78382;SDS011;67668;52.294;4.692;2023-08-30T02:37:18;8.77;;;5.18;;
78382;SDS011;67668;52.294;4.692;2023-08-30T02:39:43;7.55;;;4.75;;
78382;SDS011;67668;52.294;4.692;2023-08-30T02:42:09;8.10;;;4.35;;
78382;SDS011;67668;52.294;4.692;2023-08-30T02:44:34;9.57;;;4.70;;
78382;SDS011;67668;52.294;4.692;2023-08-30T02:47:00;9.10;;;4.85;;
78382;SDS011;67668;52.294;4.692;2023-08-30T02:49:25;7.85;;;4.43;;
78382;SDS011;67668;52.294;4.692;2023-08-30T02:51:50;7.23;;;4.17;;
78382;SDS011;67668;52.294;4.692;2023-08-30T02:54:16;8.52;;;4.15;;
78382;SDS011;67668;52.294;4.692;2023-08-30T02:56:42;8.27;;;4.57;;
78382;SDS011;67668;52.294;4.692;2023-08-30T02:59:09;8.40;;;4.43;;
78382;SDS011;67668;52.294;4.692;2023-08-30T03:01:35;8.10;;;4.50;;
78382;SDS011;67668;52.294;4.692;2023-08-30T03:04:00;8.98;;;5.05;;
78382;SDS011;67668;52.294;4.692;2023-08-30T03:06:26;8.43;;;4.95;;
78382;SDS011;67668;52.294;4.692;2023-08-30T03:08:53;7.30;;;4.33;;
78382;SDS011;67668;52.294;4.692;2023-08-30T03:11:19;11.02;;;5.20;;
78382;SDS011;67668;52.294;4.692;2023-08-30T03:13:44;13.68;;;5.15;;
78382;SDS011;67668;52.294;4.692;2023-08-30T03:16:13;7.70;;;4.43;;
78382;SDS011;67668;52.294;4.692;2023-08-30T03:18:41;10.43;;;4.80;;
78382;SDS011;67668;52.294;4.692;2023-08-30T03:21:07;9.23;;;4.93;;
78382;SDS011;67668;52.294;4.692;2023-08-30T03:23:33;7.18;;;4.57;;
78382;SDS011;67668;52.294;4.692;2023-08-30T03:26:00;9.88;;;5.20;;
78382;SDS011;67668;52.294;4.692;2023-08-30T03:28:32;9.50;;;4.95;;
78382;SDS011;67668;52.294;4.692;2023-08-30T03:30:57;8.82;;;5.00;;
78382;SDS011;67668;52.294;4.692;2023-08-30T03:33:22;11.07;;;5.22;;
78382;SDS011;67668;52.294;4.692;2023-08-30T03:35:48;9.02;;;5.05;;
78382;SDS011;67668;52.294;4.692;2023-08-30T03:38:13;10.80;;;5.63;;
78382;SDS011;67668;52.294;4.692;2023-08-30T03:40:39;11.68;;;5.72;;
78382;SDS011;67668;52.294;4.692;2023-08-30T03:43:04;11.35;;;5.88;;
78382;SDS011;67668;52.294;4.692;2023-08-30T03:45:33;10.50;;;5.63;;
78382;SDS011;67668;52.294;4.692;2023-08-30T03:47:59;8.48;;;5.00;;
78382;SDS011;67668;52.294;4.692;2023-08-30T03:50:25;12.73;;;6.03;;
78382;SDS011;67668;52.294;4.692;2023-08-30T03:52:50;9.53;;;4.47;;
78382;SDS011;67668;52.294;4.692;2023-08-30T03:55:16;9.48;;;5.30;;
78382;SDS011;67668;52.294;4.692;2023-08-30T03:57:41;9.23;;;5.88;;
78382;SDS011;67668;52.294;4.692;2023-08-30T04:00:06;10.63;;;5.67;;
78382;SDS011;67668;52.294;4.692;2023-08-30T04:02:32;9.93;;;6.00;;
78382;SDS011;67668;52.294;4.692;2023-08-30T04:04:58;11.43;;;5.35;;
78382;SDS011;67668;52.294;4.692;2023-08-30T04:07:23;10.68;;;5.88;;
78382;SDS011;67668;52.294;4.692;2023-08-30T04:09:49;11.00;;;5.40;;
78382;SDS011;67668;52.294;4.692;2023-08-30T04:12:15;11.35;;;5.97;;
78382;SDS011;67668;52.294;4.692;2023-08-30T04:14:40;12.25;;;6.78;;
78382;SDS011;67668;52.294;4.692;2023-08-30T04:17:06;9.63;;;5.55;;
78382;SDS011;67668;52.294;4.692;2023-08-30T04:19:34;10.70;;;5.45;;
78382;SDS011;67668;52.294;4.692;2023-08-30T04:21:59;12.48;;;6.13;;
78382;SDS011;67668;52.294;4.692;2023-08-30T04:24:25;8.88;;;5.80;;
78382;SDS011;67668;52.294;4.692;2023-08-30T04:26:50;12.32;;;5.82;;
78382;SDS011;67668;52.294;4.692;2023-08-30T04:29:18;10.25;;;6.22;;
78382;SDS011;67668;52.294;4.692;2023-08-30T04:31:43;14.82;;;6.57;;
78382;SDS011;67668;52.294;4.692;2023-08-30T04:34:09;10.43;;;5.45;;
78382;SDS011;67668;52.294;4.692;2023-08-30T04:36:34;10.77;;;5.82;;
78382;SDS011;67668;52.294;4.692;2023-08-30T04:39:00;9.07;;;5.40;;
78382;SDS011;67668;52.294;4.692;2023-08-30T04:41:25;13.52;;;5.60;;
78382;SDS011;67668;52.294;4.692;2023-08-30T04:43:51;11.50;;;5.93;;
78382;SDS011;67668;52.294;4.692;2023-08-30T04:46:16;9.65;;;5.82;;
78382;SDS011;67668;52.294;4.692;2023-08-30T04:48:42;12.88;;;6.22;;
78382;SDS011;67668;52.294;4.692;2023-08-30T04:51:07;12.25;;;6.10;;
78382;SDS011;67668;52.294;4.692;2023-08-30T04:53:33;9.90;;;5.30;;
78382;SDS011;67668;52.294;4.692;2023-08-30T04:55:58;11.88;;;5.05;;
78382;SDS011;67668;52.294;4.692;2023-08-30T04:58:24;10.10;;;5.80;;
78382;SDS011;67668;52.294;4.692;2023-08-30T05:00:49;10.43;;;5.60;;
78382;SDS011;67668;52.294;4.692;2023-08-30T05:03:21;9.70;;;5.18;;
78382;SDS011;67668;52.294;4.692;2023-08-30T05:05:49;9.55;;;5.93;;
78382;SDS011;67668;52.294;4.692;2023-08-30T05:08:20;11.07;;;6.18;;
78382;SDS011;67668;52.294;4.692;2023-08-30T05:10:46;8.77;;;5.50;;
78382;SDS011;67668;52.294;4.692;2023-08-30T05:13:14;10.35;;;5.55;;
78382;SDS011;67668;52.294;4.692;2023-08-30T05:15:40;12.20;;;5.65;;
78382;SDS011;67668;52.294;4.692;2023-08-30T05:18:06;12.17;;;5.93;;
78382;SDS011;67668;52.294;4.692;2023-08-30T05:20:31;13.70;;;5.22;;
78382;SDS011;67668;52.294;4.692;2023-08-30T05:22:57;10.95;;;5.93;;
78382;SDS011;67668;52.294;4.692;2023-08-30T05:25:22;12.93;;;6.43;;
78382;SDS011;67668;52.294;4.692;2023-08-30T05:27:47;11.88;;;6.05;;
78382;SDS011;67668;52.294;4.692;2023-08-30T05:30:13;10.10;;;5.80;;
78382;SDS011;67668;52.294;4.692;2023-08-30T05:32:38;12.13;;;6.25;;
78382;SDS011;67668;52.294;4.692;2023-08-30T05:35:04;12.13;;;6.85;;
78382;SDS011;67668;52.294;4.692;2023-08-30T05:37:29;11.85;;;6.78;;
78382;SDS011;67668;52.294;4.692;2023-08-30T05:39:56;12.27;;;6.77;;
78382;SDS011;67668;52.294;4.692;2023-08-30T05:42:23;13.68;;;6.10;;
78382;SDS011;67668;52.294;4.692;2023-08-30T05:44:48;12.20;;;6.53;;
78382;SDS011;67668;52.294;4.692;2023-08-30T05:47:14;12.15;;;6.28;;
78382;SDS011;67668;52.294;4.692;2023-08-30T05:49:41;10.32;;;5.88;;
78382;SDS011;67668;52.294;4.692;2023-08-30T05:52:07;13.93;;;6.70;;
78382;SDS011;67668;52.294;4.692;2023-08-30T05:54:32;14.32;;;7.18;;
78382;SDS011;67668;52.294;4.692;2023-08-30T05:56:58;14.50;;;6.93;;
78382;SDS011;67668;52.294;4.692;2023-08-30T05:59:24;14.68;;;7.05;;
78382;SDS011;67668;52.294;4.692;2023-08-30T06:01:49;14.18;;;7.28;;
78382;SDS011;67668;52.294;4.692;2023-08-30T06:04:15;16.98;;;6.88;;
78382;SDS011;67668;52.294;4.692;2023-08-30T06:06:41;11.68;;;7.13;;
78382;SDS011;67668;52.294;4.692;2023-08-30T06:09:07;13.07;;;7.38;;
78382;SDS011;67668;52.294;4.692;2023-08-30T06:11:32;16.15;;;6.82;;
78382;SDS011;67668;52.294;4.692;2023-08-30T06:13:58;12.93;;;7.22;;
78382;SDS011;67668;52.294;4.692;2023-08-30T06:16:26;10.90;;;6.20;;
78382;SDS011;67668;52.294;4.692;2023-08-30T06:18:52;11.33;;;6.13;;
78382;SDS011;67668;52.294;4.692;2023-08-30T06:21:17;11.20;;;6.72;;
78382;SDS011;67668;52.294;4.692;2023-08-30T06:23:43;14.75;;;7.07;;
78382;SDS011;67668;52.294;4.692;2023-08-30T06:26:08;14.48;;;7.22;;
78382;SDS011;67668;52.294;4.692;2023-08-30T06:28:33;14.98;;;7.60;;
78382;SDS011;67668;52.294;4.692;2023-08-30T06:30:59;11.95;;;6.82;;
78382;SDS011;67668;52.294;4.692;2023-08-30T06:33:24;15.77;;;8.43;;
78382;SDS011;67668;52.294;4.692;2023-08-30T06:35:50;16.13;;;7.13;;
78382;SDS011;67668;52.294;4.692;2023-08-30T06:38:18;12.55;;;8.00;;
78382;SDS011;67668;52.294;4.692;2023-08-30T06:40:47;12.02;;;6.88;;
78382;SDS011;67668;52.294;4.692;2023-08-30T06:43:12;15.50;;;8.48;;
78382;SDS011;67668;52.294;4.692;2023-08-30T06:45:38;14.10;;;7.55;;
78382;SDS011;67668;52.294;4.692;2023-08-30T06:48:05;12.73;;;7.25;;
78382;SDS011;67668;52.294;4.692;2023-08-30T06:50:31;14.95;;;7.43;;
78382;SDS011;67668;52.294;4.692;2023-08-30T06:52:57;14.45;;;7.47;;
78382;SDS011;67668;52.294;4.692;2023-08-30T06:55:23;12.23;;;6.93;;
78382;SDS011;67668;52.294;4.692;2023-08-30T06:57:48;13.57;;;7.28;;
78382;SDS011;67668;52.294;4.692;2023-08-30T07:00:15;13.95;;;7.55;;
78382;SDS011;67668;52.294;4.692;2023-08-30T07:02:41;12.02;;;7.20;;
78382;SDS011;67668;52.294;4.692;2023-08-30T07:05:10;13.35;;;8.35;;
78382;SDS011;67668;52.294;4.692;2023-08-30T07:07:35;10.60;;;6.60;;
78382;SDS011;67668;52.294;4.692;2023-08-30T07:10:01;10.98;;;6.53;;
78382;SDS011;67668;52.294;4.692;2023-08-30T07:12:26;12.93;;;6.97;;
78382;SDS011;67668;52.294;4.692;2023-08-30T07:14:51;11.85;;;6.95;;
78382;SDS011;67668;52.294;4.692;2023-08-30T07:17:17;9.57;;;5.20;;
78382;SDS011;67668;52.294;4.692;2023-08-30T07:19:42;10.45;;;6.05;;
78382;SDS011;67668;52.294;4.692;2023-08-30T07:22:08;10.73;;;6.22;;
78382;SDS011;67668;52.294;4.692;2023-08-30T07:24:33;12.30;;;7.28;;
78382;SDS011;67668;52.294;4.692;2023-08-30T07:26:59;9.80;;;6.32;;
78382;SDS011;67668;52.294;4.692;2023-08-30T07:29:25;12.43;;;6.28;;
78382;SDS011;67668;52.294;4.692;2023-08-30T07:31:51;10.23;;;6.07;;
78382;SDS011;67668;52.294;4.692;2023-08-30T07:34:18;12.07;;;6.53;;
78382;SDS011;67668;52.294;4.692;2023-08-30T07:36:44;16.20;;;7.03;;
78382;SDS011;67668;52.294;4.692;2023-08-30T07:39:09;12.17;;;6.57;;
78382;SDS011;67668;52.294;4.692;2023-08-30T07:41:34;13.32;;;6.75;;
78382;SDS011;67668;52.294;4.692;2023-08-30T07:44:00;9.55;;;6.40;;
78382;SDS011;67668;52.294;4.692;2023-08-30T07:46:26;9.77;;;6.72;;
78382;SDS011;67668;52.294;4.692;2023-08-30T07:48:51;10.13;;;7.22;;
78382;SDS011;67668;52.294;4.692;2023-08-30T07:51:17;9.57;;;6.30;;
78382;SDS011;67668;52.294;4.692;2023-08-30T07:53:42;9.40;;;6.63;;
78382;SDS011;67668;52.294;4.692;2023-08-30T07:56:08;9.07;;;6.82;;
78382;SDS011;67668;52.294;4.692;2023-08-30T07:58:33;10.07;;;6.63;;
78382;SDS011;67668;52.294;4.692;2023-08-30T08:00:59;10.10;;;5.35;;
78382;SDS011;67668;52.294;4.692;2023-08-30T08:03:24;9.45;;;6.03;;
78382;SDS011;67668;52.294;4.692;2023-08-30T08:05:50;7.03;;;5.22;;
78382;SDS011;67668;52.294;4.692;2023-08-30T08:08:15;9.00;;;5.35;;
78382;SDS011;67668;52.294;4.692;2023-08-30T08:10:42;7.00;;;5.03;;
78382;SDS011;67668;52.294;4.692;2023-08-30T08:13:07;6.57;;;4.60;;
78382;SDS011;67668;52.294;4.692;2023-08-30T08:15:33;7.28;;;4.65;;
78382;SDS011;67668;52.294;4.692;2023-08-30T08:18:00;6.93;;;4.43;;
78382;SDS011;67668;52.294;4.692;2023-08-30T08:20:26;6.63;;;4.50;;
78382;SDS011;67668;52.294;4.692;2023-08-30T08:22:54;7.20;;;4.22;;
78382;SDS011;67668;52.294;4.692;2023-08-30T08:25:19;6.10;;;4.18;;
78382;SDS011;67668;52.294;4.692;2023-08-30T08:27:46;6.35;;;3.80;;
78382;SDS011;67668;52.294;4.692;2023-08-30T08:30:11;5.85;;;3.50;;
78382;SDS011;67668;52.294;4.692;2023-08-30T08:32:37;6.10;;;4.25;;
78382;SDS011;67668;52.294;4.692;2023-08-30T08:35:02;6.70;;;4.20;;
78382;SDS011;67668;52.294;4.692;2023-08-30T08:37:28;6.03;;;3.63;;
78382;SDS011;67668;52.294;4.692;2023-08-30T08:39:53;4.80;;;3.70;;
78382;SDS011;67668;52.294;4.692;2023-08-30T08:42:19;8.43;;;3.87;;
78382;SDS011;67668;52.294;4.692;2023-08-30T08:44:51;5.38;;;3.72;;
78382;SDS011;67668;52.294;4.692;2023-08-30T08:47:18;4.97;;;3.45;;
78382;SDS011;67668;52.294;4.692;2023-08-30T08:49:45;5.30;;;3.90;;
78382;SDS011;67668;52.294;4.692;2023-08-30T08:52:12;6.53;;;3.55;;
78382;SDS011;67668;52.294;4.692;2023-08-30T08:54:39;6.53;;;4.20;;
78382;SDS011;67668;52.294;4.692;2023-08-30T08:57:05;5.22;;;3.47;;
78382;SDS011;67668;52.294;4.692;2023-08-30T08:59:32;4.70;;;3.42;;
78382;SDS011;67668;52.294;4.692;2023-08-30T09:01:58;5.28;;;3.95;;
78382;SDS011;67668;52.294;4.692;2023-08-30T09:04:25;7.80;;;3.97;;
78382;SDS011;67668;52.294;4.692;2023-08-30T09:06:50;5.70;;;4.15;;
78382;SDS011;67668;52.294;4.692;2023-08-30T09:09:16;7.60;;;5.18;;
78382;SDS011;67668;52.294;4.692;2023-08-30T09:11:42;5.97;;;4.68;;
78382;SDS011;67668;52.294;4.692;2023-08-30T09:14:11;4.47;;;2.97;;
78382;SDS011;67668;52.294;4.692;2023-08-30T09:16:36;4.03;;;2.83;;
78382;SDS011;67668;52.294;4.692;2023-08-30T09:19:02;4.07;;;2.93;;
78382;SDS011;67668;52.294;4.692;2023-08-30T09:21:29;5.57;;;2.50;;
78382;SDS011;67668;52.294;4.692;2023-08-30T09:24:03;4.75;;;2.40;;
78382;SDS011;67668;52.294;4.692;2023-08-30T09:26:30;6.28;;;2.50;;
78382;SDS011;67668;52.294;4.692;2023-08-30T09:29:03;4.53;;;2.55;;
78382;SDS011;67668;52.294;4.692;2023-08-30T09:31:36;3.35;;;2.10;;
78382;SDS011;67668;52.294;4.692;2023-08-30T09:34:06;4.15;;;1.83;;
78382;SDS011;67668;52.294;4.692;2023-08-30T09:36:35;4.30;;;1.85;;
78382;SDS011;67668;52.294;4.692;2023-08-30T09:39:11;4.32;;;2.42;;
78382;SDS011;67668;52.294;4.692;2023-08-30T09:41:45;3.08;;;1.83;;
78382;SDS011;67668;52.294;4.692;2023-08-30T09:44:15;3.33;;;2.08;;
78382;SDS011;67668;52.294;4.692;2023-08-30T09:46:42;4.13;;;2.17;;
78382;SDS011;67668;52.294;4.692;2023-08-30T09:49:08;3.97;;;1.70;;
78382;SDS011;67668;52.294;4.692;2023-08-30T09:51:35;5.45;;;1.85;;
78382;SDS011;67668;52.294;4.692;2023-08-30T09:54:03;4.47;;;1.95;;
78382;SDS011;67668;52.294;4.692;2023-08-30T09:56:32;3.20;;;2.08;;
78382;SDS011;67668;52.294;4.692;2023-08-30T09:59:01;5.85;;;2.58;;
78382;SDS011;67668;52.294;4.692;2023-08-30T10:01:28;8.40;;;2.92;;
78382;SDS011;67668;52.294;4.692;2023-08-30T10:03:55;6.70;;;3.03;;
78382;SDS011;67668;52.294;4.692;2023-08-30T10:06:22;4.63;;;2.67;;
78382;SDS011;67668;52.294;4.692;2023-08-30T10:08:49;6.93;;;2.40;;
78382;SDS011;67668;52.294;4.692;2023-08-30T10:11:17;7.00;;;1.70;;
78382;SDS011;67668;52.294;4.692;2023-08-30T10:13:46;6.95;;;1.77;;
78382;SDS011;67668;52.294;4.692;2023-08-30T10:16:14;8.18;;;2.10;;
78382;SDS011;67668;52.294;4.692;2023-08-30T10:18:44;4.85;;;1.98;;
78382;SDS011;67668;52.294;4.692;2023-08-30T10:21:14;4.32;;;1.67;;
78382;SDS011;67668;52.294;4.692;2023-08-30T10:23:45;5.68;;;1.40;;
78382;SDS011;67668;52.294;4.692;2023-08-30T10:26:14;5.20;;;1.48;;
78382;SDS011;67668;52.294;4.692;2023-08-30T10:28:41;10.57;;;3.83;;
78382;SDS011;67668;52.294;4.692;2023-08-30T10:31:07;5.15;;;1.52;;
78382;SDS011;67668;52.294;4.692;2023-08-30T10:33:44;6.75;;;1.77;;
78382;SDS011;67668;52.294;4.692;2023-08-30T10:36:20;6.72;;;1.58;;
78382;SDS011;67668;52.294;4.692;2023-08-30T10:38:53;3.75;;;1.42;;
78382;SDS011;67668;52.294;4.692;2023-08-30T10:41:20;5.53;;;1.70;;
78382;SDS011;67668;52.294;4.692;2023-08-30T10:43:49;5.05;;;1.48;;
78382;SDS011;67668;52.294;4.692;2023-08-30T10:46:16;5.22;;;1.30;;
78382;SDS011;67668;52.294;4.692;2023-08-30T10:48:42;13.05;;;2.03;;
78382;SDS011;67668;52.294;4.692;2023-08-30T10:51:21;11.30;;;1.50;;
78382;SDS011;67668;52.294;4.692;2023-08-30T10:54:09;6.93;;;1.85;;
78382;SDS011;67668;52.294;4.692;2023-08-30T10:56:35;6.70;;;1.77;;
78382;SDS011;67668;52.294;4.692;2023-08-30T10:59:15;5.07;;;1.08;;
78382;SDS011;67668;52.294;4.692;2023-08-30T11:01:41;9.05;;;1.67;;
78382;SDS011;67668;52.294;4.692;2023-08-30T11:04:09;5.32;;;1.33;;
78382;SDS011;67668;52.294;4.692;2023-08-30T11:06:37;6.95;;;2.05;;
78382;SDS011;67668;52.294;4.692;2023-08-30T11:09:03;5.68;;;1.35;;
78382;SDS011;67668;52.294;4.692;2023-08-30T11:11:29;6.22;;;1.30;;
78382;SDS011;67668;52.294;4.692;2023-08-30T11:13:54;6.30;;;1.45;;
78382;SDS011;67668;52.294;4.692;2023-08-30T11:16:28;7.18;;;1.70;;
78382;SDS011;67668;52.294;4.692;2023-08-30T11:19:03;6.50;;;1.38;;
78382;SDS011;67668;52.294;4.692;2023-08-30T11:21:30;5.93;;;1.10;;
78382;SDS011;67668;52.294;4.692;2023-08-30T11:23:57;4.55;;;1.10;;
78382;SDS011;67668;52.294;4.692;2023-08-30T11:26:22;6.68;;;1.33;;
78382;SDS011;67668;52.294;4.692;2023-08-30T11:28:48;6.53;;;1.27;;
78382;SDS011;67668;52.294;4.692;2023-08-30T11:31:23;8.63;;;1.48;;
78382;SDS011;67668;52.294;4.692;2023-08-30T11:33:55;6.25;;;1.15;;
78382;SDS011;67668;52.294;4.692;2023-08-30T11:36:23;5.60;;;1.35;;
78382;SDS011;67668;52.294;4.692;2023-08-30T11:38:57;6.60;;;1.27;;
78382;SDS011;67668;52.294;4.692;2023-08-30T11:41:23;6.95;;;1.05;;
78382;SDS011;67668;52.294;4.692;2023-08-30T11:43:53;4.25;;;1.20;;
78382;SDS011;67668;52.294;4.692;2023-08-30T11:46:19;5.10;;;1.05;;
78382;SDS011;67668;52.294;4.692;2023-08-30T11:48:47;3.53;;;0.95;;
78382;SDS011;67668;52.294;4.692;2023-08-30T11:51:16;5.13;;;1.40;;
78382;SDS011;67668;52.294;4.692;2023-08-30T11:53:42;7.38;;;1.15;;
78382;SDS011;67668;52.294;4.692;2023-08-30T11:56:08;4.90;;;1.20;;
78382;SDS011;67668;52.294;4.692;2023-08-30T11:58:35;3.50;;;0.95;;
78382;SDS011;67668;52.294;4.692;2023-08-30T12:01:01;3.33;;;0.88;;
78382;SDS011;67668;52.294;4.692;2023-08-30T12:03:27;5.15;;;0.90;;
78382;SDS011;67668;52.294;4.692;2023-08-30T12:05:56;2.30;;;0.80;;
78382;SDS011;67668;52.294;4.692;2023-08-30T12:08:25;3.58;;;0.95;;
78382;SDS011;67668;52.294;4.692;2023-08-30T12:10:52;4.80;;;1.13;;
78382;SDS011;67668;52.294;4.692;2023-08-30T12:13:22;5.30;;;1.00;;
78382;SDS011;67668;52.294;4.692;2023-08-30T12:15:55;3.58;;;0.88;;
78382;SDS011;67668;52.294;4.692;2023-08-30T12:18:43;2.38;;;0.70;;
78382;SDS011;67668;52.294;4.692;2023-08-30T12:21:08;2.33;;;0.80;;
78382;SDS011;67668;52.294;4.692;2023-08-30T12:23:33;6.40;;;1.05;;
78382;SDS011;67668;52.294;4.692;2023-08-30T12:26:00;6.15;;;0.68;;
78382;SDS011;67668;52.294;4.692;2023-08-30T12:28:27;4.18;;;0.88;;
78382;SDS011;67668;52.294;4.692;2023-08-30T12:30:54;5.72;;;1.40;;
78382;SDS011;67668;52.294;4.692;2023-08-30T12:33:19;2.88;;;0.93;;
78382;SDS011;67668;52.294;4.692;2023-08-30T12:35:45;6.88;;;1.75;;
78382;SDS011;67668;52.294;4.692;2023-08-30T12:38:10;8.82;;;1.50;;
78382;SDS011;67668;52.294;4.692;2023-08-30T12:40:43;8.73;;;1.30;;
78382;SDS011;67668;52.294;4.692;2023-08-30T12:43:09;6.10;;;1.08;;
78382;SDS011;67668;52.294;4.692;2023-08-30T12:45:36;5.63;;;1.52;;
78382;SDS011;67668;52.294;4.692;2023-08-30T12:48:01;10.70;;;1.60;;
78382;SDS011;67668;52.294;4.692;2023-08-30T12:50:27;4.25;;;1.08;;
78382;SDS011;67668;52.294;4.692;2023-08-30T12:52:53;5.20;;;1.35;;
78382;SDS011;67668;52.294;4.692;2023-08-30T12:55:19;3.78;;;1.00;;
78382;SDS011;67668;52.294;4.692;2023-08-30T12:57:44;1.95;;;0.60;;
78382;SDS011;67668;52.294;4.692;2023-08-30T13:00:11;4.05;;;0.60;;
78382;SDS011;67668;52.294;4.692;2023-08-30T13:02:38;2.13;;;0.85;;
78382;SDS011;67668;52.294;4.692;2023-08-30T13:05:03;5.30;;;0.70;;
78382;SDS011;67668;52.294;4.692;2023-08-30T13:07:29;2.88;;;0.63;;
78382;SDS011;67668;52.294;4.692;2023-08-30T13:09:54;4.10;;;0.93;;
78382;SDS011;67668;52.294;4.692;2023-08-30T13:12:19;3.37;;;0.53;;
78382;SDS011;67668;52.294;4.692;2023-08-30T13:14:45;3.28;;;0.70;;
78382;SDS011;67668;52.294;4.692;2023-08-30T13:17:10;3.10;;;0.45;;
78382;SDS011;67668;52.294;4.692;2023-08-30T13:19:36;4.30;;;0.80;;
78382;SDS011;67668;52.294;4.692;2023-08-30T13:22:01;4.00;;;1.23;;
78382;SDS011;67668;52.294;4.692;2023-08-30T13:24:27;2.92;;;0.50;;
78382;SDS011;67668;52.294;4.692;2023-08-30T13:26:52;2.90;;;0.50;;
78382;SDS011;67668;52.294;4.692;2023-08-30T13:29:18;5.25;;;0.80;;
78382;SDS011;67668;52.294;4.692;2023-08-30T13:31:43;2.58;;;0.57;;
78382;SDS011;67668;52.294;4.692;2023-08-30T13:34:08;4.55;;;0.98;;
78382;SDS011;67668;52.294;4.692;2023-08-30T13:36:34;4.15;;;0.47;;
78382;SDS011;67668;52.294;4.692;2023-08-30T13:39:01;2.95;;;0.60;;
78382;SDS011;67668;52.294;4.692;2023-08-30T13:41:27;3.83;;;0.63;;
78382;SDS011;67668;52.294;4.692;2023-08-30T13:43:52;5.40;;;1.30;;
78382;SDS011;67668;52.294;4.692;2023-08-30T13:46:24;4.22;;;0.80;;
78382;SDS011;67668;52.294;4.692;2023-08-30T13:48:49;4.10;;;0.82;;
78382;SDS011;67668;52.294;4.692;2023-08-30T13:51:20;2.90;;;0.85;;
78382;SDS011;67668;52.294;4.692;2023-08-30T13:53:46;4.00;;;1.25;;
78382;SDS011;67668;52.294;4.692;2023-08-30T13:56:12;8.95;;;1.65;;
78382;SDS011;67668;52.294;4.692;2023-08-30T13:58:38;3.17;;;0.87;;
78382;SDS011;67668;52.294;4.692;2023-08-30T14:01:03;5.55;;;0.82;;
78382;SDS011;67668;52.294;4.692;2023-08-30T14:03:30;3.25;;;1.23;;
78382;SDS011;67668;52.294;4.692;2023-08-30T14:05:55;4.18;;;1.00;;
78382;SDS011;67668;52.294;4.692;2023-08-30T14:08:20;5.15;;;0.65;;
78382;SDS011;67668;52.294;4.692;2023-08-30T14:10:46;4.05;;;0.90;;
78382;SDS011;67668;52.294;4.692;2023-08-30T14:13:12;4.40;;;0.63;;
78382;SDS011;67668;52.294;4.692;2023-08-30T14:15:37;5.85;;;0.88;;
78382;SDS011;67668;52.294;4.692;2023-08-30T14:18:02;4.38;;;0.93;;
78382;SDS011;67668;52.294;4.692;2023-08-30T14:20:28;2.53;;;0.47;;
78382;SDS011;67668;52.294;4.692;2023-08-30T14:22:53;2.92;;;0.80;;
78382;SDS011;67668;52.294;4.692;2023-08-30T14:25:19;4.97;;;1.03;;
78382;SDS011;67668;52.294;4.692;2023-08-30T14:27:44;5.20;;;0.63;;
78382;SDS011;67668;52.294;4.692;2023-08-30T14:30:10;3.65;;;0.55;;
78382;SDS011;67668;52.294;4.692;2023-08-30T14:32:35;3.17;;;0.50;;
78382;SDS011;67668;52.294;4.692;2023-08-30T14:35:02;3.58;;;0.68;;
78382;SDS011;67668;52.294;4.692;2023-08-30T14:37:28;4.65;;;0.60;;
78382;SDS011;67668;52.294;4.692;2023-08-30T14:39:54;4.63;;;0.70;;
78382;SDS011;67668;52.294;4.692;2023-08-30T14:42:19;3.70;;;1.00;;
78382;SDS011;67668;52.294;4.692;2023-08-30T14:44:50;3.67;;;0.90;;
78382;SDS011;67668;52.294;4.692;2023-08-30T14:47:18;5.95;;;1.02;;
78382;SDS011;67668;52.294;4.692;2023-08-30T14:49:45;1.88;;;0.60;;